Detall de PIREP

Printer-friendly versionPDF version

[2011/08/19 10:16:00]
Flight IATA:CT1004
Pilot Number:042
Company ICAO:CAT
Aircraft Type:B763/F
PAX:180
Departing Airport: LEVC
Destination Airport: LXGB
Alternate Airport:LEMG
Online: VATSIM
Route:ASTRO B28 PIMOS
Flight Level:F270
No Slew and time accel
No pause
Crash detect
Detect pilot in Cockpit between each 30 and 45 minutes
10:16 Zero fuel Weight: 244976 Lbs, Fuel Weight: 161228 Lbs
10:16 VATSIM:LEVC 191000Z VRB03KT 9999 FEW024 30/20 Q1019 NOSIG
10:16 VATSIM:LXGB 190950Z 09016KT 8000 HZ FEW013 SCT250 26/23 Q1015 NOSIG
10:16 VOICE CATALONIAN/SUMMER CHARTER
10:18 Parking Brakes off
10:21 Take-off
10:21 Take off Weight: 404529 Lbs
10:21 Wind: 003 @ 003 Knots Heading: 295
10:21 POS N39 29 32 W000 29 25
10:21 Gear Up: 191 Knots
10:21 Flaps:3 at 191 Knots
10:21 Flaps:2 at 198 Knots
10:22 Flaps:1 at 199 Knots
10:22 Flaps:0 at 205 Knots
10:34 TOC
10:34 Fuel Weight: 152501 Lb
10:36 Wind:214@043 Knots Heading: 230 Ground Speed: 422 Knots Altitude 27221 ft
10:51 Wind:196@037 Knots Heading: 223 Ground Speed: 429 Knots Altitude 27148 ft
10:56 TOD
10:56 Fuel Weight: 147868 Lb
11:06 Wind:204@030 Knots Heading: 211 Ground Speed: 275 Knots Altitude 12132 ft
11:14 Flaps:1 at 225 Knots
11:16 Flaps:2 at 176 Knots
11:16 Flaps:3 at 176 Knots
11:16 Gear Down: 176 Knots
11:16 Flaps:4 at 175 Knots
11:17 Flaps:5 at 174 Knots
11:18 Flaps:4 at 172 Knots
11:18 Flaps:6 at 170 Knots
11:18 Flaps:4 at 168 Knots
11:18 Flaps:6 at 167 Knots
11:20 TouchDown:Rate -429 ft/min Speed: 147 Knots
11:20 VATSIM:LXGB 191050Z 08016KT 8000 HZ FEW007 SCT020 BKN250 26/22 Q1016 NOSIG
11:21 Land
11:21 Wind:084@016 Knots
11:21 Heading: 355
11:21 Flight Duration: 01:00
11:21 Landing Weight: 389696 Lbs
11:21 POS N36 09 14 W005 20 22
11:22 Parking brakes on
11:22 Block to Block Duration: 01:04
11:22 Final Fuel: 144462 Lbls
11:22 Spent Fuel: 16765 Lbls
11:22 Flight Length: 339 NM
11:22 TOD Land Length: 108 NM

Exportar CSV

Powered by Drupal - Modified by Danger4k